createdAt,value
2019-05-02T00:01:47.710Z,1.90
2019-05-02T00:04:21.050Z,2.03
2019-05-02T00:07:14.341Z,2.03
2019-05-02T00:09:48.486Z,2.30
2019-05-02T00:12:18.943Z,2.30
2019-05-02T00:14:50.080Z,2.13
2019-05-02T00:17:25.575Z,2.20
2019-05-02T00:19:55.074Z,2.00
2019-05-02T00:22:26.328Z,2.70
2019-05-02T00:24:57.329Z,1.97
2019-05-02T00:27:28.233Z,2.07
2019-05-02T00:30:00.388Z,2.50
2019-05-02T00:32:31.258Z,1.90
2019-05-02T00:35:02.273Z,2.07
2019-05-02T00:37:33.094Z,2.50
2019-05-02T00:40:03.879Z,2.20
2019-05-02T00:42:34.777Z,2.30
2019-05-02T00:45:05.803Z,2.13
2019-05-02T00:47:47.883Z,2.13
2019-05-02T00:50:18.324Z,1.60
2019-05-02T00:52:49.297Z,2.40
2019-05-02T00:55:20.088Z,2.30
2019-05-02T00:57:55.273Z,2.17
2019-05-02T01:00:23.593Z,2.50
2019-05-02T01:02:58.286Z,2.47
2019-05-02T01:05:29.263Z,2.70
2019-05-02T01:08:01.142Z,3.03
2019-05-02T01:10:32.513Z,2.83
2019-05-02T01:13:03.413Z,2.50
2019-05-02T01:15:34.313Z,3.40
2019-05-02T01:18:06.080Z,3.00
2019-05-02T01:20:37.618Z,3.47
2019-05-02T01:23:08.389Z,3.40
2019-05-02T01:25:39.229Z,3.40
2019-05-02T01:28:27.394Z,3.00
2019-05-02T01:31:13.095Z,3.20
2019-05-02T01:34:05.048Z,3.37
2019-05-02T01:36:50.413Z,3.37
2019-05-02T01:39:21.381Z,3.33
2019-05-02T01:41:52.238Z,3.30
2019-05-02T01:44:23.109Z,3.60
2019-05-02T01:46:58.355Z,3.67
2019-05-02T01:49:26.382Z,3.73
2019-05-02T01:51:57.263Z,3.50
2019-05-02T01:54:27.973Z,2.97
2019-05-02T01:56:58.863Z,4.07
2019-05-02T01:59:33.921Z,4.10
2019-05-02T02:02:02.331Z,4.77
2019-05-02T02:04:33.158Z,4.57
2019-05-02T02:07:04.031Z,4.87
2019-05-02T02:09:38.900Z,4.47
2019-05-02T02:12:09.764Z,4.37
2019-05-02T02:14:39.724Z,4.77
2019-05-02T02:17:15.608Z,4.87
2019-05-02T02:19:50.653Z,5.00
2019-05-02T02:22:44.328Z,5.07
2019-05-02T02:25:32.300Z,5.87
2019-05-02T02:28:02.048Z,5.20
2019-05-02T02:30:32.874Z,5.67
2019-05-02T02:33:07.399Z,5.13
2019-05-02T02:35:36.285Z,5.27
2019-05-02T02:38:07.364Z,5.13
2019-05-02T02:40:38.329Z,5.80
2019-05-02T02:43:29.910Z,5.57
2019-05-02T02:45:57.624Z,4.97
2019-05-02T02:48:24.410Z,4.50
2019-05-02T02:50:55.215Z,5.00
2019-05-02T02:53:32.281Z,5.27
2019-05-02T02:56:06.002Z,5.40
2019-05-02T02:58:45.793Z,5.60
2019-05-02T03:01:09.845Z,5.23
2019-05-02T03:03:40.715Z,4.73
2019-05-02T03:06:11.649Z,5.07
2019-05-02T03:08:46.613Z,5.23
2019-05-02T03:11:22.764Z,4.60
2019-05-02T03:14:10.418Z,4.37
2019-05-02T03:16:47.246Z,4.97
2019-05-02T03:19:21.054Z,4.73
2019-05-02T03:22:01.014Z,4.73
2019-05-02T03:24:28.423Z,5.00
2019-05-02T03:26:59.315Z,4.63
2019-05-02T03:29:41.487Z,4.63
2019-05-02T03:32:14.776Z,5.07
2019-05-02T03:34:46.655Z,5.50
2019-05-02T03:37:10.677Z,5.03
2019-05-02T03:39:40.569Z,5.67
2019-05-02T03:42:11.406Z,5.37
2019-05-02T03:44:42.245Z,5.50
2019-05-02T03:47:13.224Z,4.57
2019-05-02T03:49:48.554Z,5.37
2019-05-02T03:52:16.805Z,5.10
2019-05-02T03:54:50.556Z,4.87
2019-05-02T03:57:32.154Z,5.57
2019-05-02T03:59:53.089Z,4.87
2019-05-02T04:02:24.968Z,4.50
2019-05-02T04:05:00.671Z,5.47
2019-05-02T04:07:39.333Z,6.80
2019-05-02T04:10:01.908Z,5.87
2019-05-02T04:12:33.215Z,5.50
2019-05-02T04:15:04.343Z,7.13
2019-05-02T04:17:37.353Z,8.33
2019-05-02T04:20:10.178Z,6.50
2019-05-02T04:22:42.723Z,7.40
2019-05-02T04:25:13.443Z,7.57
2019-05-02T04:27:45.115Z,7.83
2019-05-02T04:30:16.051Z,7.07
2019-05-02T04:32:49.731Z,7.63
2019-05-02T04:35:19.415Z,6.53
2019-05-02T04:37:50.413Z,7.60
2019-05-02T04:40:21.269Z,6.53
2019-05-02T04:43:02.033Z,6.63
2019-05-02T04:45:29.397Z,7.77
2019-05-02T04:48:01.034Z,7.47
2019-05-02T04:50:29.595Z,6.77
2019-05-02T04:53:00.404Z,7.63
2019-05-02T04:55:33.363Z,7.10
2019-05-02T04:58:03.919Z,7.37
2019-05-02T05:00:34.840Z,8.57
2019-05-02T05:03:07.216Z,7.80
2019-05-02T05:05:40.374Z,8.13
2019-05-02T05:08:10.594Z,7.87
2019-05-02T05:10:44.941Z,8.77
2019-05-02T05:13:19.854Z,8.43
2019-05-02T05:15:49.553Z,7.97
2019-05-02T05:18:18.945Z,8.90
2019-05-02T05:20:52.995Z,7.40
2019-05-02T05:23:43.888Z,7.03
2019-05-02T05:26:14.963Z,7.53
2019-05-02T05:28:47.661Z,6.97
2019-05-02T05:31:24.187Z,6.73
2019-05-02T05:33:50.663Z,6.83
2019-05-02T05:36:29.187Z,7.60
2019-05-02T05:38:53.798Z,6.70
2019-05-02T05:41:24.769Z,6.00
2019-05-02T05:43:57.381Z,5.70
2019-05-02T05:46:28.219Z,5.50
2019-05-02T05:48:59.091Z,5.30
2019-05-02T05:51:29.953Z,5.60
2019-05-02T05:54:03.183Z,5.47
2019-05-02T05:56:39.737Z,5.23
2019-05-02T05:59:07.720Z,4.77
2019-05-02T06:01:38.569Z,4.77
2019-05-02T06:04:13.756Z,5.07
2019-05-02T06:06:41.909Z,3.87
2019-05-02T06:09:13.928Z,3.70
2019-05-02T06:11:44.933Z,4.43
2019-05-02T06:14:20.020Z,3.10
2019-05-02T06:16:51.756Z,3.97
2019-05-02T06:19:20.623Z,3.80
2019-05-02T06:21:51.695Z,3.00
2019-05-02T06:24:22.587Z,3.00
2019-05-02T06:26:53.363Z,3.43
2019-05-02T06:29:24.323Z,2.70
2019-05-02T06:31:55.174Z,3.50
2019-05-02T06:34:25.955Z,3.53
2019-05-02T06:36:56.888Z,2.97
2019-05-02T06:39:31.875Z,3.73
2019-05-02T06:42:00.578Z,3.33
2019-05-02T06:44:31.375Z,3.13
2019-05-02T06:47:04.400Z,3.47
2019-05-02T06:49:34.948Z,3.50
2019-05-02T06:52:05.663Z,3.60
2019-05-02T06:54:36.529Z,3.50
2019-05-02T06:57:07.468Z,3.83
2019-05-02T06:59:38.348Z,3.57
2019-05-02T07:02:09.368Z,3.43
2019-05-02T07:04:40.350Z,3.47
2019-05-02T07:07:13.151Z,4.10
2019-05-02T07:09:43.628Z,3.47
2019-05-02T07:12:16.488Z,3.80
2019-05-02T07:14:47.023Z,4.20
2019-05-02T07:17:38.393Z,4.20
2019-05-02T07:20:09.937Z,4.50
2019-05-02T07:22:40.966Z,4.10
2019-05-02T07:25:12.108Z,4.17
2019-05-02T07:27:42.983Z,4.10
2019-05-02T07:30:14.208Z,3.63
2019-05-02T07:32:45.993Z,4.13
2019-05-02T07:35:19.237Z,3.67
2019-05-02T07:37:50.120Z,3.77
2019-05-02T07:40:21.053Z,3.70
2019-05-02T07:42:51.938Z,4.03
2019-05-02T07:45:22.718Z,3.40
2019-05-02T07:47:53.528Z,3.90
2019-05-02T07:50:24.428Z,2.97
2019-05-02T07:52:55.628Z,3.27
2019-05-02T07:55:26.463Z,3.20
2019-05-02T07:57:57.147Z,3.97
2019-05-02T08:00:32.054Z,3.50
2019-05-02T08:03:00.428Z,3.70
2019-05-02T08:05:31.313Z,3.00
2019-05-02T08:08:02.113Z,2.90
2019-05-02T08:10:33.093Z,3.37
2019-05-02T08:13:03.823Z,3.73
2019-05-02T08:15:34.753Z,3.50
2019-05-02T08:18:05.838Z,2.93
2019-05-02T08:20:36.603Z,3.23
2019-05-02T08:23:07.378Z,2.97
2019-05-02T08:25:41.455Z,3.77
2019-05-02T08:28:19.018Z,3.00
2019-05-02T08:30:53.113Z,2.53
2019-05-02T08:33:23.939Z,2.83
2019-05-02T08:35:54.813Z,3.00
2019-05-02T08:38:25.653Z,2.87
2019-05-02T08:40:56.413Z,2.73
2019-05-02T08:43:27.198Z,2.60
2019-05-02T08:45:58.083Z,2.70
2019-05-02T08:48:28.884Z,2.67
2019-05-02T08:50:59.593Z,2.87
2019-05-02T08:53:31.508Z,2.80
2019-05-02T08:56:02.319Z,2.63
2019-05-02T08:58:33.133Z,2.83
2019-05-02T09:01:04.238Z,2.80
2019-05-02T09:03:53.925Z,2.70
2019-05-02T09:06:07.499Z,3.67
2019-05-02T09:08:38.269Z,2.83
2019-05-02T09:11:14.212Z,3.00
2019-05-02T09:13:42.193Z,2.80
2019-05-02T09:16:14.233Z,2.93
2019-05-02T09:18:50.891Z,2.47
2019-05-02T09:21:17.358Z,2.43
2019-05-02T09:23:48.283Z,2.10
2019-05-02T09:26:31.984Z,2.33
2019-05-02T09:28:51.794Z,1.63
2019-05-02T09:31:22.730Z,1.70
2019-05-02T09:33:55.607Z,2.30
2019-05-02T09:36:25.943Z,1.40
2019-05-02T09:38:57.646Z,1.80
2019-05-02T09:41:34.504Z,2.33
2019-05-02T09:44:02.740Z,1.87
2019-05-02T09:46:33.383Z,1.60
2019-05-02T09:49:09.672Z,1.80
2019-05-02T09:51:36.544Z,1.97
2019-05-02T09:54:07.308Z,2.40
2019-05-02T09:56:38.189Z,2.00
2019-05-02T09:59:24.428Z,2.07
2019-05-02T10:01:42.227Z,1.90
2019-05-02T10:04:13.139Z,2.07
2019-05-02T10:06:44.054Z,1.77
2019-05-02T10:09:18.742Z,2.20
2019-05-02T10:11:47.264Z,2.10
2019-05-02T10:14:18.060Z,2.13
2019-05-02T10:16:48.919Z,1.87
2019-05-02T10:19:19.832Z,2.23
2019-05-02T10:21:54.315Z,1.90
2019-05-02T10:24:23.168Z,1.90
2019-05-02T10:27:02.881Z,1.60
2019-05-02T10:29:28.419Z,2.03
2019-05-02T10:31:59.383Z,1.70
2019-05-02T10:34:30.208Z,2.10
2019-05-02T10:37:02.838Z,1.83
2019-05-02T10:39:37.710Z,1.70
2019-05-02T10:42:06.333Z,1.50
2019-05-02T10:44:37.229Z,1.73
2019-05-02T10:47:08.243Z,1.40
2019-05-02T10:49:44.563Z,1.50
2019-05-02T10:52:15.395Z,1.80
2019-05-02T10:54:46.235Z,1.43
2019-05-02T10:57:17.223Z,1.73
2019-05-02T10:59:48.203Z,1.90
2019-05-02T11:02:36.814Z,2.10
2019-05-02T11:05:16.940Z,1.53
2019-05-02T11:07:45.198Z,1.37
2019-05-02T11:10:16.148Z,1.63
2019-05-02T11:13:08.889Z,1.73
2019-05-02T11:16:13.353Z,1.57
2019-05-02T11:18:54.668Z,1.53
2019-05-02T11:21:25.754Z,1.80
2019-05-02T11:23:56.816Z,1.70
2019-05-02T11:26:27.783Z,2.37
2019-05-02T11:28:58.708Z,2.33
2019-05-02T11:31:29.693Z,2.30
2019-05-02T11:34:01.805Z,2.37
2019-05-02T11:36:33.042Z,2.30
2019-05-02T11:39:15.275Z,2.67
2019-05-02T11:41:38.543Z,2.37
2019-05-02T11:44:09.338Z,2.33
2019-05-02T11:46:42.899Z,2.90
2019-05-02T11:49:12.837Z,2.97
2019-05-02T11:51:47.137Z,2.63
2019-05-02T11:54:16.123Z,3.03
2019-05-02T11:56:51.297Z,3.03
2019-05-02T11:59:20.798Z,2.70
2019-05-02T12:02:09.314Z,2.70
2019-05-02T12:04:37.558Z,2.23
2019-05-02T12:07:08.358Z,2.50
2019-05-02T12:09:39.113Z,2.50
2019-05-02T12:12:11.920Z,2.57
2019-05-02T12:14:42.638Z,2.60
2019-05-02T12:17:13.498Z,2.80
2019-05-02T12:19:44.328Z,2.93
2019-05-02T12:22:16.938Z,2.57
2019-05-02T12:24:47.699Z,2.40
2019-05-02T12:27:18.564Z,3.03
2019-05-02T12:29:50.150Z,3.03
2019-05-02T12:32:22.453Z,2.60
2019-05-02T12:34:53.718Z,3.47
2019-05-02T12:37:24.463Z,2.63
2019-05-02T12:39:55.343Z,2.53
2019-05-02T12:42:26.866Z,3.20
2019-05-02T12:44:57.854Z,3.30
2019-05-02T12:47:28.729Z,2.80
2019-05-02T12:49:59.788Z,2.80
2019-05-02T12:52:32.073Z,3.20
2019-05-02T12:55:03.014Z,3.00
2019-05-02T12:57:33.943Z,2.90
2019-05-02T13:00:05.498Z,2.70
2019-05-02T13:02:58.104Z,3.00
2019-05-02T13:05:28.989Z,2.50
2019-05-02T13:07:59.723Z,3.33
2019-05-02T13:10:45.258Z,3.20
2019-05-02T13:13:16.305Z,3.07
2019-05-02T13:15:47.168Z,2.73
2019-05-02T13:18:18.772Z,2.67
2019-05-02T13:20:52.637Z,3.30
2019-05-02T13:23:47.563Z,2.53
2019-05-02T13:26:21.928Z,3.47
2019-05-02T13:28:51.686Z,2.57
2019-05-02T13:31:46.968Z,2.83
2019-05-02T13:34:33.628Z,2.50
2019-05-02T13:37:06.009Z,2.70
2019-05-02T13:39:42.344Z,2.80
2019-05-02T13:42:13.929Z,2.80
2019-05-02T13:45:02.466Z,2.87
2019-05-02T13:47:33.618Z,2.70
2019-05-02T13:50:04.436Z,3.33
2019-05-02T13:52:35.535Z,3.47
2019-05-02T13:55:08.533Z,2.30
2019-05-02T13:57:43.165Z,3.20
2019-05-02T14:00:13.708Z,3.40
2019-05-02T14:02:45.433Z,2.90
2019-05-02T14:05:17.208Z,2.80
2019-05-02T14:07:55.707Z,3.20
2019-05-02T14:10:39.545Z,2.57
2019-05-02T14:13:07.789Z,3.47
2019-05-02T14:15:41.940Z,3.30
2019-05-02T14:18:12.688Z,3.03
2019-05-02T14:20:43.594Z,2.70
2019-05-02T14:23:14.503Z,2.87
2019-05-02T14:25:45.363Z,2.53
2019-05-02T14:28:16.318Z,3.10
2019-05-02T14:30:47.113Z,2.27
2019-05-02T14:33:23.216Z,2.40
2019-05-02T14:35:54.222Z,1.90
2019-05-02T14:38:25.193Z,2.20
2019-05-02T14:41:12.713Z,2.47
2019-05-02T14:43:56.928Z,2.10
2019-05-02T14:46:34.130Z,1.77
2019-05-02T14:49:02.536Z,2.60
2019-05-02T14:51:36.277Z,2.00
2019-05-02T14:54:08.354Z,2.17
2019-05-02T14:56:55.873Z,2.23
2019-05-02T14:59:28.937Z,2.30
2019-05-02T15:02:05.795Z,2.20
2019-05-02T15:04:38.315Z,2.03
2019-05-02T15:07:07.058Z,2.40
2019-05-02T15:09:37.779Z,2.03
2019-05-02T15:12:14.717Z,1.97
2019-05-02T15:14:43.114Z,2.50
2019-05-02T15:17:13.515Z,2.10
2019-05-02T15:19:44.684Z,2.17
2019-05-02T15:22:16.303Z,2.30
2019-05-02T15:24:47.059Z,2.23
2019-05-02T15:27:18.040Z,2.20
2019-05-02T15:29:52.932Z,2.40
2019-05-02T15:32:37.388Z,2.17
2019-05-02T15:35:26.831Z,2.57
2019-05-02T15:37:56.733Z,3.00
2019-05-02T15:43:02.820Z,3.67
2019-05-02T15:45:36.613Z,3.10
2019-05-02T15:48:05.281Z,2.87
2019-05-02T15:50:35.996Z,2.53
2019-05-02T15:53:16.010Z,3.03
2019-05-02T15:55:46.789Z,3.20
2019-05-02T15:58:23.705Z,3.70
2019-05-02T16:01:15.373Z,2.80
2019-05-02T16:03:48.225Z,2.97
2019-05-02T16:06:21.838Z,3.10
2019-05-02T16:08:51.964Z,2.80
2019-05-02T16:11:23.181Z,2.93
2019-05-02T16:13:55.898Z,2.73
2019-05-02T16:16:26.464Z,3.10
2019-05-02T16:18:57.401Z,2.93
2019-05-02T16:21:37.063Z,3.07
2019-05-02T16:24:22.576Z,3.00
2019-05-02T16:26:56.617Z,3.13
2019-05-02T16:29:28.350Z,2.50
2019-05-02T16:32:26.557Z,3.70
2019-05-02T16:35:00.093Z,2.80
2019-05-02T16:37:32.380Z,2.60
2019-05-02T16:40:03.429Z,3.07
2019-05-02T16:42:34.633Z,2.53
2019-05-02T16:45:05.954Z,2.87
2019-05-02T16:47:36.893Z,3.20
2019-05-02T16:50:12.027Z,2.90
2019-05-02T16:52:43.658Z,3.00
2019-05-02T16:55:20.729Z,3.20
2019-05-02T16:57:49.238Z,3.00
2019-05-02T17:00:23.783Z,2.53
2019-05-02T17:02:54.746Z,3.43
2019-05-02T17:05:25.613Z,2.90
2019-05-02T17:08:22.553Z,3.20
2019-05-02T17:10:57.114Z,2.87
2019-05-02T17:13:32.764Z,3.30
2019-05-02T17:16:06.951Z,2.53
2019-05-02T17:18:33.133Z,2.13
2019-05-02T17:21:04.074Z,3.03
2019-05-02T17:23:37.454Z,2.70
2019-05-02T17:26:07.598Z,3.27
2019-05-02T17:28:43.357Z,2.60
2019-05-02T17:31:19.081Z,2.47
2019-05-02T17:33:46.156Z,2.47
2019-05-02T17:36:16.173Z,2.33
2019-05-02T17:38:46.934Z,2.27
2019-05-02T17:41:17.813Z,2.40
2019-05-02T17:43:49.057Z,2.60
2019-05-02T17:46:21.941Z,2.63
2019-05-02T17:48:53.772Z,2.50
2019-05-02T17:51:46.191Z,2.60
2019-05-02T17:54:17.542Z,2.00
2019-05-02T17:56:52.303Z,2.10
2019-05-02T17:59:20.928Z,2.30
2019-05-02T18:01:52.463Z,2.30
2019-05-02T18:04:23.369Z,2.20
2019-05-02T18:06:55.234Z,2.43
2019-05-02T18:09:30.641Z,2.10
2019-05-02T18:11:58.943Z,2.27
2019-05-02T18:14:29.769Z,2.30
2019-05-02T18:17:01.857Z,2.47
2019-05-02T18:19:32.885Z,2.33
2019-05-02T18:22:07.057Z,2.30
2019-05-02T18:24:37.325Z,2.00
2019-05-02T18:27:09.004Z,1.80
2019-05-02T18:29:42.643Z,2.10
2019-05-02T18:32:12.882Z,2.37
2019-05-02T18:34:43.763Z,2.93
2019-05-02T18:37:14.788Z,2.13
2019-05-02T18:39:50.872Z,1.90
2019-05-02T18:42:21.951Z,2.73
2019-05-02T18:44:53.129Z,1.90
2019-05-02T18:47:24.623Z,1.53
2019-05-02T18:50:01.801Z,1.93
2019-05-02T18:52:36.426Z,1.80
2019-05-02T18:55:01.617Z,1.93
2019-05-02T18:57:32.664Z,1.87
2019-05-02T19:00:03.509Z,1.70
2019-05-02T19:02:35.707Z,1.30
2019-05-02T19:05:13.502Z,1.20
2019-05-02T19:07:42.626Z,1.50
2019-05-02T19:10:13.264Z,1.70
2019-05-02T19:12:44.349Z,1.60
2019-05-02T19:15:15.402Z,1.70
2019-05-02T19:17:47.228Z,1.60
2019-05-02T19:21:06.404Z,1.93
2019-05-02T19:23:38.823Z,1.87
2019-05-02T19:26:12.504Z,1.50
2019-05-02T19:29:08.346Z,1.63
2019-05-02T19:31:44.394Z,1.67
2019-05-02T19:34:16.951Z,1.57
2019-05-02T19:36:45.554Z,1.70
2019-05-02T19:39:16.789Z,2.00
2019-05-02T19:41:48.213Z,1.80
2019-05-02T19:44:21.389Z,1.83
2019-05-02T19:46:52.103Z,1.77
2019-05-02T19:49:25.402Z,1.70
2019-05-02T19:51:56.502Z,2.03
2019-05-02T19:54:33.595Z,2.00
2019-05-02T19:57:01.318Z,2.00
2019-05-02T19:59:32.562Z,2.03
2019-05-02T20:02:06.079Z,2.50
2019-05-02T20:04:37.737Z,2.47
2019-05-02T20:07:09.764Z,2.40
2019-05-02T20:09:45.654Z,2.27
2019-05-02T20:12:15.607Z,2.67
2019-05-02T20:14:47.545Z,2.70
2019-05-02T20:17:20.305Z,2.27
2019-05-02T20:19:57.783Z,2.70
2019-05-02T20:22:27.554Z,2.40
2019-05-02T20:25:01.182Z,2.67
2019-05-02T20:27:32.954Z,2.30
2019-05-02T20:30:04.597Z,2.17
2019-05-02T20:32:35.679Z,2.27
2019-05-02T20:35:07.084Z,2.20
2019-05-02T20:37:38.078Z,2.97
2019-05-02T20:40:11.966Z,2.43
2019-05-02T20:42:43.285Z,2.07
2019-05-02T20:45:14.914Z,2.57
2019-05-02T20:47:45.979Z,2.27
2019-05-02T20:50:17.124Z,2.07
2019-05-02T20:52:48.176Z,2.20
2019-05-02T20:55:19.303Z,2.43
2019-05-02T20:57:52.623Z,1.93
2019-05-02T21:00:24.624Z,2.83
2019-05-02T21:02:55.716Z,2.50
2019-05-02T21:05:32.213Z,2.10
2019-05-02T21:08:28.659Z,2.20
2019-05-02T21:11:01.676Z,1.83
2019-05-02T21:13:32.772Z,1.90
2019-05-02T21:16:03.818Z,2.17
2019-05-02T21:18:34.599Z,2.10
2019-05-02T21:21:05.718Z,2.30
2019-05-02T21:23:46.523Z,2.67
2019-05-02T21:26:09.068Z,2.23
2019-05-02T21:28:39.951Z,2.10
2019-05-02T21:31:12.107Z,2.40
2019-05-02T21:33:43.219Z,2.53
2019-05-02T21:36:13.978Z,3.10
2019-05-02T21:38:44.958Z,2.43
2019-05-02T21:41:16.623Z,2.73
2019-05-02T21:43:47.573Z,2.97
2019-05-02T21:46:18.539Z,3.07
2019-05-02T21:48:49.494Z,3.80
2019-05-02T21:51:45.023Z,3.23
2019-05-02T21:54:46.448Z,4.27
2019-05-02T21:57:18.804Z,4.27
2019-05-02T21:59:49.623Z,3.70
2019-05-02T22:02:22.475Z,4.73
2019-05-02T22:04:52.985Z,4.10
2019-05-02T22:07:24.130Z,3.73
2019-05-02T22:09:54.990Z,3.63
2019-05-02T22:12:25.844Z,3.73
2019-05-02T22:14:56.629Z,4.57
2019-05-02T22:17:27.339Z,3.33
2019-05-02T22:19:58.129Z,3.70
2019-05-02T22:22:28.993Z,3.90
2019-05-02T22:24:59.748Z,4.20
2019-05-02T22:27:32.422Z,4.20
2019-05-02T22:30:03.485Z,3.60
2019-05-02T22:32:34.313Z,4.07
2019-05-02T22:35:05.483Z,3.50
2019-05-02T22:37:36.663Z,3.63
2019-05-02T22:40:09.833Z,3.83
2019-05-02T22:42:41.716Z,4.50
2019-05-02T22:45:13.226Z,3.40
2019-05-02T22:47:44.099Z,3.57
2019-05-02T22:50:15.163Z,3.57
2019-05-02T22:52:45.884Z,4.40
2019-05-02T22:55:16.815Z,3.70
2019-05-02T22:57:47.868Z,3.07
2019-05-02T23:00:18.790Z,3.27
2019-05-02T23:02:49.603Z,3.67
2019-05-02T23:05:20.753Z,3.50
2019-05-02T23:07:52.682Z,3.07
2019-05-02T23:10:23.634Z,3.20
2019-05-02T23:12:54.418Z,3.63
2019-05-02T23:15:25.264Z,2.97
2019-05-02T23:17:56.003Z,3.70
2019-05-02T23:20:27.383Z,3.57
2019-05-02T23:22:58.203Z,3.30
2019-05-02T23:25:46.608Z,3.20
2019-05-02T23:28:22.146Z,3.60
2019-05-02T23:30:53.454Z,3.77
2019-05-02T23:33:25.753Z,3.93
2019-05-02T23:35:56.598Z,3.73
2019-05-02T23:38:27.508Z,4.13
2019-05-02T23:40:58.388Z,4.00
2019-05-02T23:43:29.235Z,4.10
2019-05-02T23:46:02.227Z,3.77
2019-05-02T23:48:32.664Z,4.23
2019-05-02T23:51:03.588Z,3.83
2019-05-02T23:53:34.468Z,3.43
2019-05-02T23:56:05.254Z,4.00
2019-05-02T23:58:36.194Z,3.67
